Burgum, Netherlands
Current Conditions -  °F | °C
As of 5:25 AM on Monday 20 Oct 2014 (Local Time) from EHLW Reporting Station
Overcast Overcast  
Wind Chill: 59°   Ceiling: 4100
Heat Index: 59°   Visibility: 6mi
Dew Point: 54°   Wind: 15mph
Humidity: 82%   Direction: 260°W
Pressure: 29.85"   Gusts: NA
Location:  53.19°N, 5.99°E
Report Text: EHLW 200325Z AUTO 26013KT 9999 SCT036 OVC041 15/12 Q1011 BLU
Loading
Personal Weather Stations






























Interactive Weather Map
Tropical Storm Tracking
New forecast layout! Learn more

10-Day Weather Forecast

Advertisements
Track Severe Weather on mobile